Time;durP1;ratioP1;P1;durP2;ratioP2;P2;SDS_P1;SDS_P2;PMS_P1;PMS_P2;Temp;Humidity;BMP_temperature;BMP_pressure;BME280_temperature;BME280_humidity;BME280_pressure;Samples;Min_cycle;Max_cycle;Signal;HPM_P1;HPM_P2
2022/03/17 00:01:24;;;;;;;28.77;18.80;;;10.40;99.90;;;;;;5092122;28;20040;-72
2022/03/17 00:03:50;;;;;;;30.17;19.48;;;10.40;99.90;;;;;;5074567;28;20044;-72
2022/03/17 00:06:15;;;;;;;31.67;20.50;;;10.40;99.90;;;;;;5092087;28;20039;-72
2022/03/17 00:08:41;;;;;;;28.42;18.45;;;10.40;99.90;;;;;;5074163;28;20074;-72
2022/03/17 00:11:06;;;;;;;31.40;20.05;;;10.40;99.90;;;;;;5074254;28;20553;-73
2022/03/17 00:13:32;;;;;;;29.45;19.30;;;10.40;99.90;;;;;;5092371;28;20391;-72
2022/03/17 00:15:58;;;;;;;31.70;19.92;;;10.40;99.90;;;;;;5073788;28;20035;-72
2022/03/17 00:18:23;;;;;;;31.10;20.10;;;10.40;99.90;;;;;;5092354;28;20386;-72
2022/03/17 00:20:49;;;;;;;28.08;19.20;;;10.30;99.90;;;;;;5092263;28;20040;-72
2022/03/17 00:23:14;;;;;;;29.50;19.00;;;10.30;99.90;;;;;;5074014;28;20043;-70
2022/03/17 00:25:40;;;;;;;33.17;20.40;;;10.30;99.90;;;;;;5091933;28;20065;-72
2022/03/17 00:28:06;;;;;;;35.83;20.25;;;10.30;99.90;;;;;;5092235;28;20389;-71
2022/03/17 00:30:32;;;;;;;34.35;20.95;;;10.20;99.90;;;;;;5073977;28;20082;-70
2022/03/17 00:32:57;;;;;;;28.67;19.17;;;10.20;99.90;;;;;;5073906;28;20043;-70
2022/03/17 00:35:35;;;;;;;30.42;19.85;;;10.30;99.90;;;;;;5073475;28;20115;-70
2022/03/17 00:38:02;;;;;;;29.48;19.88;;;10.30;99.90;;;;;;5073121;28;20055;-70
2022/03/17 00:40:27;;;;;;;28.77;19.23;;;10.20;99.90;;;;;;5074201;28;20047;-71
2022/03/17 00:42:55;;;;;;;31.30;19.73;;;10.20;99.90;;;;;;5073860;28;20047;-70
2022/03/17 00:45:22;;;;;;;31.48;20.70;;;10.20;99.90;;;;;;5073507;28;20431;-70
2022/03/17 00:47:47;;;;;;;33.17;20.30;;;10.20;99.90;;;;;;5073704;28;20036;-71
2022/03/17 00:50:13;;;;;;;30.67;20.45;;;10.20;99.90;;;;;;5073944;28;20085;-71
2022/03/17 00:52:38;;;;;;;34.53;21.05;;;10.20;99.90;;;;;;5091870;28;20047;-71
2022/03/17 00:55:06;;;;;;;32.13;20.17;;;10.10;99.90;;;;;;5073669;28;20036;-71
2022/03/17 00:57:32;;;;;;;33.45;20.90;;;10.20;99.90;;;;;;5073452;28;20401;-71
2022/03/17 00:59:57;;;;;;;29.45;19.23;;;10.20;99.90;;;;;;5073906;28;20089;-71
2022/03/17 01:02:23;;;;;;;28.65;19.27;;;10.20;99.90;;;;;;5073725;28;20043;-71
2022/03/17 01:04:49;;;;;;;33.25;21.35;;;10.10;99.90;;;;;;5073612;28;20135;-70
2022/03/17 01:07:14;;;;;;;28.63;20.08;;;10.20;99.90;;;;;;5091467;28;20040;-70
2022/03/17 01:09:40;;;;;;;31.02;20.85;;;10.10;99.90;;;;;;5073611;28;20085;-70
2022/03/17 01:12:06;;;;;;;30.60;19.77;;;10.20;99.90;;;;;;5091760;28;20063;-70
2022/03/17 01:14:31;;;;;;;30.95;19.73;;;10.20;99.90;;;;;;5091703;28;20040;-70
2022/03/17 01:16:57;;;;;;;31.17;20.02;;;10.20;99.90;;;;;;5073364;28;20522;-70
2022/03/17 01:19:22;;;;;;;35.38;19.85;;;10.20;99.90;;;;;;5073477;28;20133;-71
2022/03/17 01:21:49;;;;;;;35.03;21.13;;;10.10;99.90;;;;;;5073483;28;20144;-70
2022/03/17 01:24:16;;;;;;;30.40;19.42;;;10.10;99.90;;;;;;5073472;28;20048;-70
2022/03/17 01:26:41;;;;;;;36.67;21.27;;;10.10;99.90;;;;;;5073118;28;20393;-70
2022/03/17 01:29:07;;;;;;;35.80;21.73;;;10.10;99.90;;;;;;5073463;28;20047;-70
2022/03/17 01:31:33;;;;;;;34.75;21.45;;;10.10;99.90;;;;;;5091501;28;20540;-71
2022/03/17 01:33:59;;;;;;;32.55;21.25;;;10.10;99.90;;;;;;5091345;28;20036;-70
2022/03/17 01:36:25;;;;;;;33.65;20.63;;;10.10;99.90;;;;;;5091012;28;20081;-71
2022/03/17 01:38:51;;;;;;;35.63;20.08;;;10.10;99.90;;;;;;5056716;28;20046;-71
2022/03/17 01:41:16;;;;;;;33.00;21.17;;;10.10;99.90;;;;;;5073292;28;20039;-71
2022/03/17 01:43:43;;;;;;;31.98;20.65;;;10.10;99.90;;;;;;5091515;28;20493;-71
2022/03/17 01:46:10;;;;;;;33.63;20.67;;;10.10;99.90;;;;;;5073193;28;20040;-71
2022/03/17 01:48:35;;;;;;;29.45;20.13;;;10.10;99.90;;;;;;5091188;28;20044;-71
2022/03/17 01:51:01;;;;;;;33.10;20.83;;;10.00;99.90;;;;;;5076889;28;20382;-71
2022/03/17 01:53:26;;;;;;;32.22;20.48;;;10.00;99.90;;;;;;5077086;28;20390;-71
2022/03/17 01:55:52;;;;;;;28.65;19.63;;;10.00;99.90;;;;;;5094741;28;20439;-71
2022/03/17 01:58:18;;;;;;;34.42;20.50;;;10.00;99.90;;;;;;5076732;28;20459;-71
2022/03/17 02:00:45;;;;;;;34.25;22.20;;;10.00;99.90;;;;;;5094326;28;20072;-71
2022/03/17 02:03:11;;;;;;;28.70;19.58;;;10.00;99.90;;;;;;5076752;28;20047;-71
2022/03/17 02:05:38;;;;;;;32.33;21.10;;;10.00;99.90;;;;;;5076580;28;20275;-71
2022/03/17 02:08:07;;;;;;;31.05;19.88;;;9.90;99.90;;;;;;5076499;28;20040;-71
2022/03/17 02:13:08;;;;;;;30.73;20.65;;;9.90;99.90;;;;;;5076443;28;20032;-71
2022/03/17 02:13:18;;;;;;;30.85;19.85;;;9.90;99.90;;;;;;5076314;28;20081;-71
2022/03/17 02:15:49;;;;;;;34.85;21.35;;;9.90;99.90;;;;;;5094268;28;20118;-71
2022/03/17 02:18:16;;;;;;;34.58;21.15;;;9.90;99.90;;;;;;5076418;28;20089;-71
2022/03/17 02:20:42;;;;;;;33.80;22.63;;;9.90;99.90;;;;;;5094499;28;20044;-71
2022/03/17 02:25:59;;;;;;;29.17;20.27;;;9.90;99.90;;;;;;5052392;28;20090;-71
2022/03/17 02:28:26;;;;;;;30.80;20.20;;;9.90;99.90;;;;;;5076147;28;20048;-70
2022/03/17 02:30:52;;;;;;;36.63;22.20;;;9.90;99.90;;;;;;5094273;28;20509;-71
2022/03/17 02:33:18;;;;;;;32.35;20.08;;;10.00;99.90;;;;;;5076131;28;20046;-71
2022/03/17 02:35:47;;;;;;;32.35;21.15;;;10.00;99.90;;;;;;5093725;28;20425;-71
2022/03/17 02:38:14;;;;;;;32.45;20.50;;;10.10;99.90;;;;;;5094334;28;20089;-70
2022/03/17 02:40:41;;;;;;;30.55;19.20;;;10.00;99.90;;;;;;5094034;28;20044;-70
2022/03/17 02:43:08;;;;;;;32.95;22.67;;;10.10;99.90;;;;;;5075892;28;20036;-70
2022/03/17 02:45:35;;;;;;;33.95;20.10;;;10.10;99.90;;;;;;5059156;28;20371;-70
2022/03/17 02:48:00;;;;;;;31.65;20.60;;;10.10;99.90;;;;;;5093853;28;20047;-70
2022/03/17 02:50:26;;;;;;;37.55;21.17;;;10.10;99.90;;;;;;5076056;28;20040;-70
2022/03/17 02:52:52;;;;;;;31.83;20.10;;;10.10;99.90;;;;;;5075753;28;20044;-70
2022/03/17 02:55:17;;;;;;;33.83;21.55;;;10.10;99.90;;;;;;5093735;28;20028;-71
2022/03/17 02:57:46;;;;;;;33.22;20.58;;;10.20;99.90;;;;;;5058866;28;20036;-70
2022/03/17 03:00:14;;;;;;;35.28;19.85;;;10.20;99.90;;;;;;5074614;28;20044;-71
2022/03/17 03:02:40;;;;;;;32.00;19.60;;;10.20;99.90;;;;;;5075133;28;20076;-70
2022/03/17 03:05:07;;;;;;;31.20;19.55;;;10.20;99.90;;;;;;5093683;28;20047;-70
2022/03/17 03:07:33;;;;;;;34.05;20.65;;;10.20;99.90;;;;;;5093384;28;20093;-71
2022/03/17 03:09:58;;;;;;;29.85;20.55;;;10.20;99.90;;;;;;5075453;28;20040;-71
2022/03/17 03:12:24;;;;;;;35.38;20.50;;;10.20;99.90;;;;;;5075470;28;20059;-71
2022/03/17 03:14:50;;;;;;;29.20;20.58;;;10.20;99.90;;;;;;5075518;28;20109;-71
2022/03/17 03:17:16;;;;;;;33.38;21.88;;;10.20;99.90;;;;;;5093272;28;20116;-71
2022/03/17 03:19:42;;;;;;;33.58;21.48;;;10.20;99.90;;;;;;5093500;28;20036;-70
2022/03/17 03:22:08;;;;;;;34.70;21.67;;;10.20;99.90;;;;;;5075427;28;20047;-70
2022/03/17 03:24:34;;;;;;;32.92;21.17;;;10.20;99.90;;;;;;5075085;28;20071;-70
2022/03/17 03:27:00;;;;;;;32.28;20.70;;;10.20;99.90;;;;;;5074666;28;20075;-70
2022/03/17 03:29:25;;;;;;;32.28;20.60;;;10.20;99.90;;;;;;5074921;28;20045;-71
2022/03/17 03:31:59;;;;;;;31.95;21.38;;;10.20;99.90;;;;;;5093133;28;20540;-70
2022/03/17 03:34:27;;;;;;;32.10;21.55;;;10.10;99.90;;;;;;5093270;28;20036;-70
2022/03/17 03:39:38;;;;;;;34.38;21.85;;;10.10;99.90;;;;;;5074785;28;20052;-71
2022/03/17 03:42:05;;;;;;;35.60;22.35;;;10.10;99.90;;;;;;5092896;28;20055;-71
2022/03/17 03:44:31;;;;;;;29.42;19.77;;;10.10;99.90;;;;;;5074747;28;20036;-71
2022/03/17 03:46:57;;;;;;;35.78;22.77;;;10.20;99.90;;;;;;5092635;28;20055;-71
2022/03/17 03:49:23;;;;;;;32.95;21.98;;;10.20;99.90;;;;;;5092837;28;20093;-70
2022/03/17 03:51:48;;;;;;;32.30;21.27;;;10.20;99.90;;;;;;5058227;28;20051;-71
2022/03/17 03:54:16;;;;;;;33.92;21.48;;;10.20;99.90;;;;;;5074486;28;20115;-71
2022/03/17 03:56:44;;;;;;;33.53;22.80;;;10.20;99.90;;;;;;5074180;28;20119;-71
2022/03/17 03:59:20;;;;;;;32.05;21.27;;;10.20;99.90;;;;;;5092644;28;20074;-71
2022/03/17 04:01:46;;;;;;;36.30;21.15;;;10.20;99.90;;;;;;5074777;28;20504;-71
2022/03/17 04:04:17;;;;;;;32.00;21.45;;;10.20;99.90;;;;;;5074404;28;20090;-71
2022/03/17 04:06:47;;;;;;;29.95;21.70;;;10.20;99.90;;;;;;5074047;28;20164;-71
2022/03/17 04:09:18;;;;;;;33.08;20.58;;;10.20;99.90;;;;;;5074240;28;20036;-70
2022/03/17 04:11:45;;;;;;;33.35;21.95;;;10.30;99.90;;;;;;5092377;28;20055;-71
2022/03/17 04:14:12;;;;;;;33.58;21.83;;;10.20;99.90;;;;;;5074237;28;20038;-71
2022/03/17 04:16:38;;;;;;;37.50;23.05;;;10.20;99.90;;;;;;5073909;28;20111;-71
2022/03/17 04:19:04;;;;;;;31.10;21.20;;;10.20;99.90;;;;;;5092324;28;20040;-71
2022/03/17 04:21:31;;;;;;;35.40;24.55;;;10.20;99.90;;;;;;5074311;28;20048;-71
2022/03/17 04:23:57;;;;;;;32.80;21.73;;;10.20;99.90;;;;;;5074288;28;20036;-71
2022/03/17 04:26:22;;;;;;;31.23;22.20;;;10.20;99.90;;;;;;5091939;28;20120;-70
2022/03/17 04:28:48;;;;;;;34.67;23.25;;;10.20;99.90;;;;;;5092110;28;20528;-70
2022/03/17 04:31:13;;;;;;;37.47;23.77;;;10.10;99.90;;;;;;5074320;28;20474;-70
2022/03/17 04:33:39;;;;;;;33.53;23.90;;;10.10;99.90;;;;;;5073998;28;20089;-70
2022/03/17 04:36:06;;;;;;;42.78;25.15;;;10.10;99.90;;;;;;5113174;22;20145;-70
2022/03/17 04:38:32;;;;;;;36.00;26.58;;;10.10;99.90;;;;;;5073031;28;20036;-68
2022/03/17 04:40:58;;;;;;;37.00;25.27;;;10.10;99.90;;;;;;5091011;28;20459;-69
2022/03/17 04:43:24;;;;;;;37.53;26.75;;;10.20;99.90;;;;;;5073746;28;20040;-69
2022/03/17 04:45:50;;;;;;;42.50;29.70;;;10.10;99.90;;;;;;5073626;28;20044;-69
2022/03/17 04:48:15;;;;;;;41.70;27.98;;;10.10;99.90;;;;;;5073617;28;20055;-69
2022/03/17 04:50:41;;;;;;;45.63;28.33;;;10.10;99.90;;;;;;5073059;28;20032;-69
2022/03/17 04:55:51;;;;;;;45.53;28.58;;;10.10;99.90;;;;;;5073255;28;20044;-69
2022/03/17 04:58:17;;;;;;;47.20;30.08;;;10.10;99.90;;;;;;5073971;28;20063;-69
2022/03/17 05:00:43;;;;;;;46.30;31.65;;;9.90;99.90;;;;;;5056875;28;20497;-69
2022/03/17 05:03:10;;;;;;;49.42;32.40;;;10.00;99.90;;;;;;5091771;28;20036;-69
2022/03/17 05:05:36;;;;;;;44.20;31.13;;;9.90;99.90;;;;;;5073298;28;20490;-69
2022/03/17 05:08:02;;;;;;;47.83;32.15;;;9.90;99.90;;;;;;5091710;28;20043;-69
2022/03/17 05:10:30;;;;;;;51.72;32.00;;;9.90;99.90;;;;;;5073775;28;20036;-69
2022/03/17 05:12:56;;;;;;;50.15;32.30;;;9.80;99.90;;;;;;5073800;28;20032;-69
2022/03/17 05:15:23;;;;;;;53.92;34.20;;;9.80;99.90;;;;;;5091345;28;20461;-69
2022/03/17 05:17:48;;;;;;;54.05;32.65;;;9.80;99.90;;;;;;5091605;28;20405;-69
2022/03/17 05:20:14;;;;;;;50.42;33.45;;;9.80;99.90;;;;;;5091767;28;20036;-69
2022/03/17 05:22:41;;;;;;;49.22;33.33;;;9.70;99.90;;;;;;5073473;28;20493;-69
2022/03/17 05:25:08;;;;;;;54.40;34.53;;;9.70;99.90;;;;;;5059367;28;20035;-69
2022/03/17 05:27:38;;;;;;;57.85;36.22;;;9.70;99.90;;;;;;5076865;28;20047;-69
2022/03/17 05:30:04;;;;;;;58.92;35.33;;;9.70;99.90;;;;;;5077285;28;20051;-69
2022/03/17 05:32:30;;;;;;;64.13;38.88;;;9.70;99.90;;;;;;5060741;28;20371;-69
2022/03/17 05:34:55;;;;;;;57.55;34.85;;;9.60;99.90;;;;;;5077147;28;20032;-69
2022/03/17 05:37:21;;;;;;;51.13;30.83;;;9.60;99.90;;;;;;5076741;28;20043;-69
2022/03/17 05:39:47;;;;;;;41.67;24.85;;;9.60;99.90;;;;;;5095306;28;20032;-69
2022/03/17 05:42:12;;;;;;;16.70;11.93;;;9.60;99.90;;;;;;5095186;28;20382;-68
2022/03/17 05:44:38;;;;;;;12.80;9.02;;;9.50;99.90;;;;;;5076946;28;20040;-69
2022/03/17 05:47:04;;;;;;;12.45;8.65;;;9.30;99.90;;;;;;5076909;28;20036;-69
2022/03/17 05:49:30;;;;;;;10.80;8.32;;;9.20;99.90;;;;;;5095009;28;20086;-69
2022/03/17 05:51:56;;;;;;;11.68;7.88;;;9.10;99.90;;;;;;5076919;28;20062;-68
2022/03/17 05:54:21;;;;;;;9.57;7.78;;;9.00;99.90;;;;;;5060072;28;20429;-69
2022/03/17 05:56:47;;;;;;;11.50;8.73;;;8.90;99.90;;;;;;5076426;28;20036;-68
2022/03/17 05:59:13;;;;;;;10.45;8.20;;;8.90;99.90;;;;;;5076916;28;20123;-70
2022/03/17 06:01:38;;;;;;;13.43;9.63;;;8.80;99.90;;;;;;5095064;28;20084;-69
2022/03/17 06:04:04;;;;;;;12.73;8.85;;;8.80;99.90;;;;;;5094931;28;20119;-69
2022/03/17 06:06:29;;;;;;;14.02;9.88;;;8.80;99.90;;;;;;5094381;28;20036;-68
2022/03/17 06:08:55;;;;;;;14.70;10.77;;;8.70;99.90;;;;;;5076399;28;20047;-69
2022/03/17 06:11:21;;;;;;;19.77;11.68;;;8.70;99.90;;;;;;5076560;28;20048;-69
2022/03/17 06:13:48;;;;;;;19.20;11.35;;;8.60;99.90;;;;;;5094494;28;20639;-69
2022/03/17 06:16:13;;;;;;;23.33;12.15;;;8.60;99.90;;;;;;5094380;28;20036;-68
2022/03/17 06:18:40;;;;;;;23.45;13.00;;;8.60;99.90;;;;;;5094634;28;20059;-69
2022/03/17 06:21:06;;;;;;;27.52;14.18;;;8.50;99.90;;;;;;5076214;28;20048;-68
2022/03/17 06:23:32;;;;;;;23.13;14.07;;;8.50;99.90;;;;;;5094416;28;20054;-69
2022/03/17 06:25:58;;;;;;;23.15;13.32;;;8.50;99.90;;;;;;5075889;28;20118;-69
2022/03/17 06:28:23;;;;;;;20.00;12.20;;;8.40;99.90;;;;;;5076230;28;20075;-70
2022/03/17 06:30:49;;;;;;;18.48;11.55;;;8.50;99.90;;;;;;5094242;28;20580;-69
2022/03/17 06:33:16;;;;;;;23.83;11.35;;;8.40;99.90;;;;;;5076087;28;20119;-69
2022/03/17 06:35:41;;;;;;;20.83;11.93;;;8.40;99.90;;;;;;5093760;28;20067;-69
2022/03/17 06:38:07;;;;;;;21.20;12.27;;;8.40;99.90;;;;;;5059551;28;20088;-69
2022/03/17 06:40:35;;;;;;;24.90;11.57;;;8.40;99.90;;;;;;5094148;28;20036;-69
2022/03/17 06:43:01;;;;;;;23.00;10.48;;;8.30;99.90;;;;;;5075948;28;20051;-69
2022/03/17 06:45:27;;;;;;;24.25;10.35;;;8.30;99.90;;;;;;5093836;28;20070;-69
2022/03/17 06:47:53;;;;;;;21.45;10.10;;;8.30;99.90;;;;;;5075717;28;20040;-69
2022/03/17 06:50:22;;;;;;;18.48;9.40;;;8.30;99.90;;;;;;5093938;28;20115;-69
2022/03/17 06:52:49;;;;;;;17.63;8.05;;;8.30;99.90;;;;;;5058845;28;20084;-68
2022/03/17 06:55:14;;;;;;;19.15;8.05;;;8.30;99.90;;;;;;5075462;28;20497;-69
2022/03/17 06:57:41;;;;;;;18.50;7.93;;;8.30;99.90;;;;;;5075618;28;20180;-68
2022/03/17 07:00:09;;;;;;;19.25;8.00;;;8.20;99.90;;;;;;5075564;28;20393;-69
2022/03/17 07:02:35;;;;;;;19.15;6.70;;;8.20;99.90;;;;;;5093762;28;20123;-69
2022/03/17 07:05:02;;;;;;;17.38;6.63;;;8.20;99.90;;;;;;5075471;28;20128;-68
2022/03/17 07:07:28;;;;;;;11.68;6.13;;;8.20;99.90;;;;;;5075054;28;20040;-68
2022/03/17 07:09:54;;;;;;;15.98;6.43;;;8.10;99.90;;;;;;5093432;28;20032;-68
2022/03/17 07:12:19;;;;;;;14.77;6.70;;;8.10;99.90;;;;;;5075391;28;20044;-69
2022/03/17 07:14:45;;;;;;;13.85;6.05;;;8.10;99.90;;;;;;5093493;28;20408;-68
2022/03/17 07:17:10;;;;;;;15.35;5.32;;;8.10;99.90;;;;;;5092998;28;20123;-69
2022/03/17 07:19:36;;;;;;;16.52;5.28;;;8.10;99.90;;;;;;5093432;28;20082;-68
2022/03/17 07:22:02;;;;;;;14.88;4.70;;;8.10;99.90;;;;;;5093300;28;20107;-68
2022/03/17 07:24:28;;;;;;;12.15;4.45;;;8.10;99.90;;;;;;5093149;28;20040;-68
2022/03/17 07:26:54;;;;;;;14.40;4.38;;;8.10;99.90;;;;;;5074982;28;20039;-68
2022/03/17 07:29:19;;;;;;;12.45;3.65;;;8.10;99.90;;;;;;5093203;28;20060;-68
2022/03/17 07:31:45;;;;;;;12.98;4.03;;;8.10;99.90;;;;;;5092743;28;20101;-69
2022/03/17 07:34:10;;;;;;;8.57;3.25;;;8.10;99.90;;;;;;5093030;28;20035;-69
2022/03/17 07:36:36;;;;;;;9.57;2.83;;;8.10;99.90;;;;;;5092376;28;20449;-68
2022/03/17 07:39:04;;;;;;;14.27;2.80;;;8.10;99.90;;;;;;5074774;28;20052;-69
2022/03/17 07:41:30;;;;;;;8.93;2.50;;;8.10;99.90;;;;;;5074770;28;20412;-69
2022/03/17 07:43:56;;;;;;;10.27;2.80;;;8.10;99.90;;;;;;5090609;28;20028;-69
2022/03/17 07:46:21;;;;;;;6.57;2.70;;;8.10;99.90;;;;;;5084267;28;20036;-69
2022/03/17 07:48:47;;;;;;;12.50;2.72;;;8.10;99.90;;;;;;5084019;28;20036;-69
2022/03/17 07:51:12;;;;;;;8.38;2.95;;;8.10;99.90;;;;;;5074627;28;20088;-69
2022/03/17 07:53:39;;;;;;;8.18;2.70;;;8.00;99.90;;;;;;5092624;28;20032;-70
2022/03/17 07:56:06;;;;;;;11.35;3.15;;;8.00;99.90;;;;;;5073871;28;20048;-70
2022/03/17 07:58:32;;;;;;;13.60;3.65;;;8.00;99.90;;;;;;5078821;28;20040;-70
2022/03/17 08:01:00;;;;;;;12.38;3.22;;;8.00;99.90;;;;;;5054839;28;20057;-69
2022/03/17 08:03:26;;;;;;;11.50;3.75;;;8.00;99.90;;;;;;5059703;28;20058;-68
2022/03/17 08:05:52;;;;;;;10.30;3.00;;;7.90;99.90;;;;;;5053930;28;20545;-67
2022/03/17 08:08:19;;;;;;;12.27;2.90;;;8.00;99.90;;;;;;5054127;28;20123;-69
2022/03/17 08:10:45;;;;;;;10.15;2.22;;;8.00;99.90;;;;;;5073044;28;20045;-69
2022/03/17 08:13:11;;;;;;;9.23;2.40;;;8.00;99.90;;;;;;5072355;28;20032;-69
2022/03/17 08:15:39;;;;;;;23.90;4.22;;;8.00;99.90;;;;;;5071800;28;20111;-69
2022/03/17 08:18:06;;;;;;;15.05;2.47;;;8.00;99.90;;;;;;5087994;28;20085;-70
2022/03/17 08:20:32;;;;;;;11.95;1.80;;;8.00;99.90;;;;;;5085756;28;20040;-69
2022/03/17 08:22:58;;;;;;;10.95;1.98;;;8.00;99.90;;;;;;5092401;28;20036;-69
2022/03/17 08:25:24;;;;;;;10.85;2.38;;;8.00;99.90;;;;;;5092120;28;20085;-69
2022/03/17 08:27:54;;;;;;;8.57;2.25;;;8.00;99.90;;;;;;5074049;28;20516;-69
2022/03/17 08:30:20;;;;;;;12.40;1.95;;;8.00;99.90;;;;;;5087610;28;20504;-69
2022/03/17 08:32:46;;;;;;;10.65;1.90;;;8.00;99.90;;;;;;5082531;28;20028;-70
2022/03/17 08:35:13;;;;;;;10.90;3.13;;;8.00;99.90;;;;;;5089665;28;20047;-68
2022/03/17 08:37:41;;;;;;;16.27;3.20;;;8.00;99.90;;;;;;5073856;28;20043;-70
2022/03/17 08:40:07;;;;;;;11.05;2.30;;;8.00;99.90;;;;;;5073946;28;20062;-68
2022/03/17 08:42:33;;;;;;;10.90;2.63;;;8.00;99.90;;;;;;5073696;28;20044;-69
2022/03/17 08:44:58;;;;;;;14.25;2.25;;;8.00;99.90;;;;;;5077096;28;20494;-69
2022/03/17 08:50:08;;;;;;;13.32;2.63;;;8.10;99.90;;;;;;5058286;28;20109;-70
2022/03/17 08:52:34;;;;;;;24.15;3.28;;;8.10;99.90;;;;;;5056326;28;20033;-71
2022/03/17 08:54:59;;;;;;;21.33;3.53;;;8.10;99.90;;;;;;5071546;28;20522;-68
2022/03/17 08:57:25;;;;;;;20.42;3.13;;;8.10;99.90;;;;;;5071109;28;20037;-69
2022/03/17 08:59:53;;;;;;;10.07;2.30;;;8.10;99.90;;;;;;5080337;28;20582;-68
2022/03/17 09:02:18;;;;;;;11.98;2.55;;;8.10;99.90;;;;;;5077572;28;20094;-68
2022/03/17 09:04:44;;;;;;;12.45;3.47;;;8.10;99.90;;;;;;5077894;28;20032;-69
2022/03/17 09:07:11;;;;;;;11.55;2.50;;;8.10;99.90;;;;;;5095564;28;20509;-69
2022/03/17 09:09:38;;;;;;;9.20;2.50;;;8.10;99.90;;;;;;5095816;28;20401;-71
2022/03/17 09:12:06;;;;;;;10.30;2.28;;;8.00;99.90;;;;;;5095658;28;20040;-70
2022/03/17 09:14:33;;;;;;;10.50;2.60;;;8.00;99.90;;;;;;5077856;28;20058;-68
2022/03/17 09:16:59;;;;;;;11.38;2.47;;;8.00;99.90;;;;;;5095179;28;20047;-68
2022/03/17 09:19:27;;;;;;;12.40;2.53;;;8.00;99.90;;;;;;5077325;28;20066;-67
2022/03/17 09:21:53;;;;;;;10.02;3.10;;;8.10;99.90;;;;;;5077488;28;20036;-67
2022/03/17 09:24:18;;;;;;;7.82;2.28;;;8.10;99.90;;;;;;5077419;28;20044;-68
2022/03/17 09:26:45;;;;;;;16.10;3.25;;;8.10;99.90;;;;;;5076895;28;20035;-68
2022/03/17 09:29:10;;;;;;;13.63;2.63;;;8.20;99.90;;;;;;5077209;28;20497;-68
2022/03/17 09:31:36;;;;;;;18.73;3.40;;;8.20;99.90;;;;;;5077351;28;20044;-68
2022/03/17 09:34:03;;;;;;;16.42;2.60;;;8.30;99.90;;;;;;5069164;28;20040;-70
2022/03/17 09:36:31;;;;;;;17.00;2.50;;;8.20;99.90;;;;;;5083132;28;20093;-68
2022/03/17 09:41:42;;;;;;;15.52;3.63;;;8.20;99.90;;;;;;5066607;28;20041;-68
2022/03/17 09:44:08;;;;;;;8.65;2.67;;;8.20;99.90;;;;;;5083870;28;20045;-69
2022/03/17 09:46:34;;;;;;;8.20;2.33;;;8.20;99.90;;;;;;5083308;28;20032;-69
2022/03/17 09:49:03;;;;;;;8.82;2.30;;;8.20;99.90;;;;;;5084579;28;20039;-68
2022/03/17 09:51:29;;;;;;;13.15;2.50;;;8.20;99.90;;;;;;5085015;28;20601;-69
2022/03/17 09:54:00;;;;;;;14.70;2.17;;;8.30;99.90;;;;;;5084176;28;20039;-69
2022/03/17 09:56:27;;;;;;;7.18;2.58;;;8.30;99.90;;;;;;5065046;28;20443;-67
2022/03/17 09:58:54;;;;;;;15.73;2.63;;;8.40;99.90;;;;;;5085446;28;20040;-69
2022/03/17 10:01:21;;;;;;;10.20;1.88;;;8.40;99.90;;;;;;5084787;28;20065;-68
2022/03/17 10:03:48;;;;;;;8.57;2.72;;;8.50;99.90;;;;;;5084922;28;20041;-69
2022/03/17 10:06:17;;;;;;;21.90;2.60;;;8.50;99.90;;;;;;5065104;28;20449;-69
2022/03/17 10:08:45;;;;;;;16.63;3.25;;;8.60;99.90;;;;;;5094610;28;20127;-70
2022/03/17 10:11:15;;;;;;;12.52;3.20;;;8.70;99.90;;;;;;5094129;28;20093;-70
2022/03/17 10:13:46;;;;;;;16.13;3.60;;;8.80;99.90;;;;;;5075852;28;20489;-70
2022/03/17 10:16:22;;;;;;;18.67;2.75;;;8.80;99.90;;;;;;5094150;28;20680;-70
2022/03/17 10:19:08;;;;;;;15.38;2.85;;;8.90;99.90;;;;;;5076613;28;20462;-70
2022/03/17 10:21:37;;;;;;;13.73;2.83;;;9.00;99.90;;;;;;5094154;28;20051;-70
2022/03/17 10:24:07;;;;;;;12.10;2.83;;;9.10;99.90;;;;;;5094123;28;20044;-70
2022/03/17 10:26:43;;;;;;;16.77;3.97;;;9.20;99.90;;;;;;5075940;28;20054;-70
2022/03/17 10:29:17;;;;;;;19.45;2.80;;;9.30;99.90;;;;;;5076201;28;20083;-70
2022/03/17 10:31:57;;;;;;;13.80;3.17;;;9.30;99.90;;;;;;5076196;28;20099;-70
2022/03/17 10:34:27;;;;;;;8.93;2.85;;;9.40;99.90;;;;;;5094213;28;20493;-70
2022/03/17 10:37:07;;;;;;;27.20;3.97;;;9.50;99.90;;;;;;5075847;22;20056;-69
2022/03/17 10:39:38;;;;;;;12.07;2.58;;;9.60;99.90;;;;;;5032691;28;20045;-68
2022/03/17 10:42:15;;;;;;;14.63;2.88;;;9.60;99.90;;;;;;5033732;28;20446;-68
2022/03/17 10:44:44;;;;;;;10.43;1.88;;;9.60;99.90;;;;;;5033910;28;20383;-68
2022/03/17 10:47:10;;;;;;;11.98;2.63;;;9.70;99.90;;;;;;5033537;28;20072;-68
2022/03/17 10:49:36;;;;;;;9.77;1.88;;;9.80;99.90;;;;;;5032649;28;20077;-68
2022/03/17 10:52:02;;;;;;;13.05;2.55;;;9.80;99.90;;;;;;5032681;28;20111;-68
2022/03/17 10:54:28;;;;;;;9.30;1.90;;;9.80;99.90;;;;;;5033160;28;20500;-68
2022/03/17 10:57:02;;;;;;;14.88;2.92;;;9.80;99.90;;;;;;5033477;28;20033;-68
2022/03/17 10:59:37;;;;;;;22.70;3.00;;;9.90;99.90;;;;;;5033783;28;20045;-68
2022/03/17 11:02:08;;;;;;;13.80;2.25;;;9.90;99.90;;;;;;5033514;28;20069;-68
2022/03/17 11:04:35;;;;;;;9.32;2.05;;;10.00;99.90;;;;;;5033306;28;20045;-68
2022/03/17 11:07:04;;;;;;;16.17;2.58;;;10.10;99.90;;;;;;5033223;28;20056;-67
2022/03/17 11:09:30;;;;;;;15.30;3.15;;;10.30;99.90;;;;;;5033269;28;20495;-67
2022/03/17 11:11:56;;;;;;;11.55;3.33;;;10.40;99.90;;;;;;5031954;28;20502;-65
2022/03/17 11:14:23;;;;;;;7.03;1.90;;;10.50;99.00;;;;;;5033068;28;20490;-66
2022/03/17 11:16:54;;;;;;;9.23;2.28;;;10.40;97.90;;;;;;5032681;28;20445;-67
2022/03/17 11:19:22;;;;;;;11.85;3.83;;;10.40;97.60;;;;;;5033424;28;20037;-69
2022/03/17 11:21:49;;;;;;;9.32;3.05;;;10.40;98.00;;;;;;5032478;28;20054;-69
2022/03/17 11:24:19;;;;;;;12.70;2.95;;;10.30;98.00;;;;;;5033132;28;20411;-69
2022/03/17 11:26:45;;;;;;;9.63;1.80;;;10.20;99.40;;;;;;5033046;28;20067;-69
2022/03/17 11:29:12;;;;;;;12.07;1.95;;;10.20;99.10;;;;;;5031613;28;20551;-69
2022/03/17 11:31:56;;;;;;;9.18;2.33;;;10.40;99.90;;;;;;5032963;28;20112;-69
2022/03/17 11:34:46;;;;;;;8.52;1.95;;;10.40;97.40;;;;;;5031931;28;20038;-69
2022/03/17 11:37:26;;;;;;;11.27;2.17;;;10.60;95.80;;;;;;5032295;28;20052;-69
2022/03/17 11:39:56;;;;;;;7.90;2.55;;;10.50;94.70;;;;;;5031263;28;20037;-69
2022/03/17 11:42:49;;;;;;;7.25;1.90;;;10.50;95.60;;;;;;5032859;28;20037;-69
2022/03/17 11:45:15;;;;;;;5.78;2.00;;;10.50;94.80;;;;;;5032471;28;20037;-69
2022/03/17 11:47:57;;;;;;;7.60;1.73;;;10.50;94.40;;;;;;5032109;28;20049;-69
2022/03/17 11:50:26;;;;;;;12.43;2.65;;;10.70;94.70;;;;;;5037786;28;20130;-69
2022/03/17 11:53:03;;;;;;;16.40;2.50;;;10.80;93.40;;;;;;5042672;28;20029;-69
2022/03/17 11:55:39;;;;;;;7.88;2.42;;;10.70;91.00;;;;;;5043370;28;20072;-69
2022/03/17 11:58:46;;;;;;;9.60;2.80;;;10.60;92.20;;;;;;5051658;28;20049;-69
2022/03/17 12:01:32;;;;;;;9.80;1.92;;;10.20;90.80;;;;;;5052293;28;20070;-69
2022/03/17 12:04:00;;;;;;;11.95;2.13;;;10.10;91.80;;;;;;5052090;28;20091;-69
2022/03/17 12:06:30;;;;;;;9.60;1.73;;;10.20;92.10;;;;;;5051997;28;20395;-69
2022/03/17 12:09:01;;;;;;;6.00;2.05;;;10.30;92.10;;;;;;5052128;28;20510;-69
2022/03/17 12:11:46;;;;;;;10.90;2.83;;;10.40;91.50;;;;;;5051184;28;20111;-69
2022/03/17 12:14:21;;;;;;;12.48;2.42;;;10.50;90.10;;;;;;5052130;28;20041;-69
2022/03/17 12:16:49;;;;;;;11.77;1.63;;;10.50;87.60;;;;;;5050282;28;20048;-69
2022/03/17 12:19:25;;;;;;;12.13;2.10;;;10.40;84.50;;;;;;5051943;28;20532;-69
2022/03/17 12:21:57;;;;;;;10.05;1.67;;;10.40;85.80;;;;;;5051590;28;20040;-69
2022/03/17 12:24:35;;;;;;;10.27;3.55;;;10.40;86.70;;;;;;5039074;28;20037;-69
2022/03/17 12:27:10;;;;;;;10.45;2.63;;;10.50;89.50;;;;;;5038084;28;20047;-70
2022/03/17 12:29:36;;;;;;;9.32;1.98;;;10.50;89.60;;;;;;5040395;28;20052;-69
2022/03/17 12:32:17;;;;;;;8.98;1.92;;;10.60;88.60;;;;;;5041340;28;20064;-69
2022/03/17 12:34:45;;;;;;;10.80;2.30;;;10.50;84.90;;;;;;5045333;28;20048;-72
2022/03/17 12:37:11;;;;;;;14.85;3.15;;;10.40;88.60;;;;;;5032823;28;20041;-69
2022/03/17 12:39:37;;;;;;;7.53;1.80;;;10.40;84.50;;;;;;5050212;28;20098;-69
2022/03/17 12:42:13;;;;;;;8.77;2.10;;;10.40;85.20;;;;;;5051692;28;20045;-69
2022/03/17 12:44:51;;;;;;;12.55;2.47;;;10.50;87.20;;;;;;5051717;28;20033;-69
2022/03/17 12:47:18;;;;;;;10.05;2.08;;;10.60;84.60;;;;;;5042316;28;20406;-69
2022/03/17 12:49:44;;;;;;;9.93;2.13;;;10.60;82.70;;;;;;5036786;28;20036;-69
2022/03/17 12:52:17;;;;;;;15.27;3.25;;;10.60;81.70;;;;;;5039390;28;20037;-69
2022/03/17 12:54:43;;;;;;;;;;;10.60;84.20;;;;;;5041633;28;20112;-70